CDT,Max TemperatureF,Mean TemperatureF,Min TemperatureF,Max Dew PointF,MeanDew PointF,Min DewpointF,Max Humidity, Mean Humidity, Min Humidity, Max Sea Level PressureIn, Mean Sea Level PressureIn, Min Sea Level PressureIn, Max VisibilityMiles, Mean VisibilityMiles, Min VisibilityMiles, Max Wind SpeedMPH, Mean Wind SpeedMPH, Max Gust SpeedMPH,PrecipitationIn, CloudCover, Events, WindDirDegrees
2013-4-1,79,65,50,60,52,46,100,68,36,30.09,30.02,29.97,10,6,0,10,1,18,0.00,2,Fog,119
2013-4-2,78,63,47,58,52,42,86,67,47,30.08,30.02,29.94,10,10,5,24,8,32,0.06,7,Rain,89
2013-4-3,48,46,43,45,42,40,93,85,76,30.13,30.07,29.99,10,8,2,21,12,24,0.32,8,Rain,40
2013-4-4,48,45,42,43,41,39,96,88,80,30.15,30.08,30.04,10,8,2,23,8,79,0.01,8,Rain,340
2013-4-5,72,56,40,47,41,35,96,65,33,30.22,30.15,30.08,10,9,6,9,3,20,0.00,2,,294
2013-4-6,78,64,49,53,48,44,86,60,33,30.09,30.00,29.90,10,10,10,22,10,28,0.00,4,,170
2013-4-7,78,67,55,58,55,53,93,68,43,30.01,29.94,29.84,10,9,5,20,10,25,0.00,5,,169
2013-4-8,84,74,64,63,59,55,87,65,43,29.88,29.83,29.77,10,10,10,24,13,30,0.00,5,,171
2013-4-9,87,78,68,68,64,61,81,65,48,29.84,29.80,29.73,10,10,9,30,16,40,T,7,,160
2013-4-10,78,61,44,71,57,41,93,83,73,29.90,29.79,29.70,10,7,1,33,11,43,1.95,8,Fog-Rain-Thunderstorm,234
2013-4-11,65,54,42,43,40,37,92,66,39,29.90,29.84,29.77,10,10,4,20,9,28,0.27,5,Rain-Thunderstorm,316
2013-4-12,78,59,40,48,42,38,93,59,25,30.01,29.94,29.88,10,10,10,12,2,31,0.00,0,,263
2013-4-13,78,63,47,54,48,45,86,60,33,30.04,29.94,29.83,10,10,10,14,3,17,0.00,4,,110
2013-4-14,81,66,51,60,54,49,89,66,42,29.79,29.73,29.64,10,10,10,16,7,23,0.00,2,,166
2013-4-15,87,74,61,68,64,59,97,71,45,29.84,29.78,29.72,10,8,2,18,10,24,0.00,6,,170
2013-4-16,88,80,72,72,69,66,93,72,50,29.98,29.91,29.84,10,8,5,20,11,29,T,7,Rain,165
2013-4-17,88,80,72,72,68,66,93,72,50,29.98,29.89,29.77,10,10,7,25,15,33,0.00,6,,161
2013-4-18,78,62,46,68,59,38,96,81,66,30.06,29.79,29.67,10,9,1,26,14,35,0.57,8,Rain-Thunderstorm,254
2013-4-19,61,50,39,38,32,27,82,56,29,30.21,30.15,30.07,10,10,7,24,9,31,0.00,1,,308
2013-4-20,71,55,38,43,37,32,92,61,29,30.26,30.19,30.09,10,10,10,17,5,22,0.00,1,,141
2013-4-21,73,59,44,46,42,39,92,62,31,30.24,30.17,30.09,10,10,10,15,4,20,0.00,2,,120
2013-4-22,79,63,47,51,47,42,80,56,32,30.15,30.05,29.94,10,10,10,17,5,22,0.00,0,,141
2013-4-23,81,67,53,64,58,51,93,74,54,30.03,29.96,29.88,10,10,8,21,8,24,T,6,Rain,214
2013-4-24,64,55,45,52,42,39,83,63,43,30.28,30.18,30.02,10,10,10,24,11,30,T,5,,346
2013-4-25,73,62,50,44,41,37,77,53,29,30.36,30.29,30.22,10,10,10,15,7,20,0.00,2,,89
2013-4-26,76,66,55,64,54,42,87,72,57,30.23,30.17,30.06,10,10,7,18,8,23,0.00,7,,135
2013-4-27,83,74,65,67,64,58,93,76,58,30.10,30.03,29.91,10,10,8,18,8,22,T,7,Thunderstorm,212
2013-4-28,82,71,59,61,57,53,87,68,49,30.04,29.97,29.89,10,10,10,12,3,15,0.00,5,,5
2013-4-29,86,71,56,62,57,51,100,67,34,29.96,29.90,29.83,10,9,1,13,4,21,0.00,1,,171
2013-4-30,84,71,57,64,60,54,93,70,47,29.87,29.84,29.79,10,10,7,16,5,21,T,4,Rain,130